Airfield :
LOGIN :

Register | Disclaimer

   EN    FR    IT 

 










Legend :    VFR   Marginal VFR   IFR   Intensive IFR   Very Intensive IFR
Visi :
Ceiling :
>= 8 km
>= 3000ft
5 to 8 km
1000 to 3000 ft
1500m to 5 km
500 to 1000 ft
800 to 1500m
200 to 500 ft
< 800m
< 200 ft
Symbols :   Thunderstorms  Fog  Heavy snow  Heavy precipitations  Wind > 20 kt
SIGMETs :     Misc.  Thunderstorms  Icing  Turbulence  Mountain Waves  Volcanic Ashes






- Airport Elevation : 474 ft
- IATA code : HFS


ESOH - Hagfors

CURRENT METAR :
  • 290550Z AUTO 20005KT 170V230 9999 -RA FEW022/// BKN031/// 14/12 Q1012 RERA

EXPIRED METARs :
  • 290520Z AUTO 20005KT 9999 -RA BKN033/// BKN076/// 14/13 Q1012
  • 290450Z AUTO 20005KT 170V230 9999 R18///// -RA SCT029/// BKN076/// 14/13 Q1012 RERA
  • 290420Z 19005KT 9999 R18///// SCT030 BKN094 14/13 Q1012
  • 290350Z 18004KT 160V220 9999 FEW015 SCT020 BKN031 14/13 Q1012
  • 290320Z AUTO 19005KT 9999 SCT011/// BKN023/// OVC030/// 14/13 Q1012
  • 290250Z AUTO 15003KT 110V190 3000 -RA BKN011/// BKN014/// OVC027/// 14/13 Q1012
  • 290220Z AUTO 15004KT 8000 BKN011/// OVC015/// 14/13 Q1012
  • 290150Z AUTO VRB02KT 2300 BR SCT012/// BKN024/// OVC100/// 14/13 Q1012
  • 290120Z AUTO 20006KT 160V230 9999 SCT011/// OVC022/// 14/13 Q1012

TAF N/A



MET'MAP, your aeronautical weather chart ! - Copyright ORBIFLY December 2007 - Disclaimer

ORBIFLY MET'MAP TEAM :

Programming & Development : Alexandra Zaïnal
Original concept : Baudouin d'Aumeries
Technical & hardware support : Manuel Goepfert
Assistance : Marc-Olivier Méhu




SOURCES & CREDITS :

   NOAA